sensor_id;sensor_type;location;lat;lon;timestamp;temperature;humidity
22153;DHT22;11242;50.536;12.688;2023-10-09T00:00:54;9.60;99.90
22153;DHT22;11242;50.536;12.688;2023-10-09T00:03:29;9.60;99.90
22153;DHT22;11242;50.536;12.688;2023-10-09T00:05:54;9.70;99.90
22153;DHT22;11242;50.536;12.688;2023-10-09T00:08:21;9.70;99.90
22153;DHT22;11242;50.536;12.688;2023-10-09T00:10:56;9.70;99.90
22153;DHT22;11242;50.536;12.688;2023-10-09T00:13:24;9.80;99.90
22153;DHT22;11242;50.536;12.688;2023-10-09T00:15:58;9.90;99.90
22153;DHT22;11242;50.536;12.688;2023-10-09T00:18:34;10.20;99.90
22153;DHT22;11242;50.536;12.688;2023-10-09T00:21:00;10.40;99.90
22153;DHT22;11242;50.536;12.688;2023-10-09T00:23:27;10.60;99.90
22153;DHT22;11242;50.536;12.688;2023-10-09T00:25:53;10.80;99.90
22153;DHT22;11242;50.536;12.688;2023-10-09T00:28:46;11.00;99.90
22153;DHT22;11242;50.536;12.688;2023-10-09T00:31:16;11.10;99.90
22153;DHT22;11242;50.536;12.688;2023-10-09T00:33:42;11.10;99.90
22153;DHT22;11242;50.536;12.688;2023-10-09T00:36:09;11.00;99.90
22153;DHT22;11242;50.536;12.688;2023-10-09T00:38:38;11.20;99.90
22153;DHT22;11242;50.536;12.688;2023-10-09T00:41:11;11.40;99.90
22153;DHT22;11242;50.536;12.688;2023-10-09T00:43:44;11.60;99.90
22153;DHT22;11242;50.536;12.688;2023-10-09T00:46:10;11.70;99.90
22153;DHT22;11242;50.536;12.688;2023-10-09T00:48:36;11.80;99.90
22153;DHT22;11242;50.536;12.688;2023-10-09T00:51:06;11.90;99.90
22153;DHT22;11242;50.536;12.688;2023-10-09T00:53:45;12.00;99.90
22153;DHT22;11242;50.536;12.688;2023-10-09T00:56:14;12.10;99.90
22153;DHT22;11242;50.536;12.688;2023-10-09T00:58:53;12.20;99.90
22153;DHT22;11242;50.536;12.688;2023-10-09T01:01:27;12.30;99.90
22153;DHT22;11242;50.536;12.688;2023-10-09T01:04:03;12.40;99.90
22153;DHT22;11242;50.536;12.688;2023-10-09T01:06:41;12.40;99.90
22153;DHT22;11242;50.536;12.688;2023-10-09T01:09:13;12.50;99.90
22153;DHT22;11242;50.536;12.688;2023-10-09T01:11:40;12.50;99.90
22153;DHT22;11242;50.536;12.688;2023-10-09T01:14:24;12.50;99.90
22153;DHT22;11242;50.536;12.688;2023-10-09T01:16:50;12.50;99.90
22153;DHT22;11242;50.536;12.688;2023-10-09T01:19:19;12.60;99.90
22153;DHT22;11242;50.536;12.688;2023-10-09T01:21:56;12.60;99.90
22153;DHT22;11242;50.536;12.688;2023-10-09T01:24:30;12.60;99.90
22153;DHT22;11242;50.536;12.688;2023-10-09T01:27:04;12.60;99.90
22153;DHT22;11242;50.536;12.688;2023-10-09T01:29:33;12.50;99.90
22153;DHT22;11242;50.536;12.688;2023-10-09T01:32:00;12.50;99.90
22153;DHT22;11242;50.536;12.688;2023-10-09T01:34:28;12.50;99.90
22153;DHT22;11242;50.536;12.688;2023-10-09T01:37:03;12.50;99.90
22153;DHT22;11242;50.536;12.688;2023-10-09T01:39:31;12.40;99.90
22153;DHT22;11242;50.536;12.688;2023-10-09T01:41:57;12.40;99.90
22153;DHT22;11242;50.536;12.688;2023-10-09T01:44:32;12.40;99.90
22153;DHT22;11242;50.536;12.688;2023-10-09T01:47:04;12.40;99.90
22153;DHT22;11242;50.536;12.688;2023-10-09T01:49:36;12.30;99.90
22153;DHT22;11242;50.536;12.688;2023-10-09T01:52:12;12.40;99.90
22153;DHT22;11242;50.536;12.688;2023-10-09T01:54:42;12.30;99.90
22153;DHT22;11242;50.536;12.688;2023-10-09T01:57:12;12.20;99.90
22153;DHT22;11242;50.536;12.688;2023-10-09T01:59:43;12.10;99.90
22153;DHT22;11242;50.536;12.688;2023-10-09T02:02:13;12.10;99.90
22153;DHT22;11242;50.536;12.688;2023-10-09T02:05:05;12.20;99.90
22153;DHT22;11242;50.536;12.688;2023-10-09T02:07:40;12.10;99.90
22153;DHT22;11242;50.536;12.688;2023-10-09T02:10:12;12.00;99.90
22153;DHT22;11242;50.536;12.688;2023-10-09T02:12:53;11.90;99.90
22153;DHT22;11242;50.536;12.688;2023-10-09T02:15:27;12.00;99.90
22153;DHT22;11242;50.536;12.688;2023-10-09T02:18:19;12.10;99.90
22153;DHT22;11242;50.536;12.688;2023-10-09T02:20:49;12.10;99.90
22153;DHT22;11242;50.536;12.688;2023-10-09T02:23:27;12.20;99.90
22153;DHT22;11242;50.536;12.688;2023-10-09T02:26:04;12.30;99.90
22153;DHT22;11242;50.536;12.688;2023-10-09T02:28:32;12.30;99.90
22153;DHT22;11242;50.536;12.688;2023-10-09T02:31:01;12.30;99.90
22153;DHT22;11242;50.536;12.688;2023-10-09T02:33:36;12.40;99.90
22153;DHT22;11242;50.536;12.688;2023-10-09T02:36:05;12.40;99.90
22153;DHT22;11242;50.536;12.688;2023-10-09T02:38:32;12.40;99.90
22153;DHT22;11242;50.536;12.688;2023-10-09T02:41:07;12.30;99.90
22153;DHT22;11242;50.536;12.688;2023-10-09T02:43:38;12.30;99.90
22153;DHT22;11242;50.536;12.688;2023-10-09T02:46:17;12.20;99.90
22153;DHT22;11242;50.536;12.688;2023-10-09T02:48:50;12.20;99.90
22153;DHT22;11242;50.536;12.688;2023-10-09T02:51:26;12.20;99.90
22153;DHT22;11242;50.536;12.688;2023-10-09T02:56:18;12.00;99.90
22153;DHT22;11242;50.536;12.688;2023-10-09T02:58:50;12.10;99.90
22153;DHT22;11242;50.536;12.688;2023-10-09T03:01:16;12.10;99.90
22153;DHT22;11242;50.536;12.688;2023-10-09T03:03:42;12.10;99.90
22153;DHT22;11242;50.536;12.688;2023-10-09T03:06:11;12.10;99.90
22153;DHT22;11242;50.536;12.688;2023-10-09T03:08:38;12.10;99.90
22153;DHT22;11242;50.536;12.688;2023-10-09T03:11:07;12.20;99.90
22153;DHT22;11242;50.536;12.688;2023-10-09T03:13:40;12.10;99.90
22153;DHT22;11242;50.536;12.688;2023-10-09T03:16:09;12.10;99.90
22153;DHT22;11242;50.536;12.688;2023-10-09T03:18:40;12.00;99.90
22153;DHT22;11242;50.536;12.688;2023-10-09T03:21:05;12.00;99.90
22153;DHT22;11242;50.536;12.688;2023-10-09T03:23:33;12.00;99.90
22153;DHT22;11242;50.536;12.688;2023-10-09T03:25:59;12.00;99.90
22153;DHT22;11242;50.536;12.688;2023-10-09T03:28:25;12.10;99.90
22153;DHT22;11242;50.536;12.688;2023-10-09T03:30:51;12.10;99.90
22153;DHT22;11242;50.536;12.688;2023-10-09T03:33:18;12.20;99.90
22153;DHT22;11242;50.536;12.688;2023-10-09T03:35:44;12.20;99.90
22153;DHT22;11242;50.536;12.688;2023-10-09T03:38:10;12.20;99.90
22153;DHT22;11242;50.536;12.688;2023-10-09T03:40:43;12.20;99.90
22153;DHT22;11242;50.536;12.688;2023-10-09T03:43:11;12.20;99.90
22153;DHT22;11242;50.536;12.688;2023-10-09T03:45:37;12.10;99.90
22153;DHT22;11242;50.536;12.688;2023-10-09T03:48:09;12.00;99.90
22153;DHT22;11242;50.536;12.688;2023-10-09T03:50:47;12.00;99.90
22153;DHT22;11242;50.536;12.688;2023-10-09T03:53:13;12.00;99.90
22153;DHT22;11242;50.536;12.688;2023-10-09T03:55:40;11.90;99.90
22153;DHT22;11242;50.536;12.688;2023-10-09T03:58:08;11.90;99.90
22153;DHT22;11242;50.536;12.688;2023-10-09T04:00:37;11.90;99.90
22153;DHT22;11242;50.536;12.688;2023-10-09T04:03:15;11.90;99.90
22153;DHT22;11242;50.536;12.688;2023-10-09T04:05:41;11.90;99.90
22153;DHT22;11242;50.536;12.688;2023-10-09T04:08:09;12.00;99.90
22153;DHT22;11242;50.536;12.688;2023-10-09T04:10:39;12.00;99.90
22153;DHT22;11242;50.536;12.688;2023-10-09T04:13:18;11.90;99.90
22153;DHT22;11242;50.536;12.688;2023-10-09T04:15:49;11.90;99.90
22153;DHT22;11242;50.536;12.688;2023-10-09T04:18:15;11.90;99.90
22153;DHT22;11242;50.536;12.688;2023-10-09T04:20:44;12.00;99.90
22153;DHT22;11242;50.536;12.688;2023-10-09T04:23:28;12.10;99.90
22153;DHT22;11242;50.536;12.688;2023-10-09T04:26:01;12.10;99.90
22153;DHT22;11242;50.536;12.688;2023-10-09T04:28:37;12.20;99.90
22153;DHT22;11242;50.536;12.688;2023-10-09T04:31:03;12.30;99.90
22153;DHT22;11242;50.536;12.688;2023-10-09T04:33:31;12.30;99.90
22153;DHT22;11242;50.536;12.688;2023-10-09T04:36:07;12.40;99.90
22153;DHT22;11242;50.536;12.688;2023-10-09T04:38:48;12.40;99.90
22153;DHT22;11242;50.536;12.688;2023-10-09T04:41:33;12.40;99.90
22153;DHT22;11242;50.536;12.688;2023-10-09T04:44:19;12.50;99.90
22153;DHT22;11242;50.536;12.688;2023-10-09T04:46:49;12.60;99.90
22153;DHT22;11242;50.536;12.688;2023-10-09T04:49:35;12.70;99.90
22153;DHT22;11242;50.536;12.688;2023-10-09T04:52:19;12.70;99.90
22153;DHT22;11242;50.536;12.688;2023-10-09T04:54:54;12.80;99.90
22153;DHT22;11242;50.536;12.688;2023-10-09T04:57:35;12.70;99.90
22153;DHT22;11242;50.536;12.688;2023-10-09T05:00:24;12.70;99.90
22153;DHT22;11242;50.536;12.688;2023-10-09T05:02:54;12.70;99.90
22153;DHT22;11242;50.536;12.688;2023-10-09T05:05:32;12.70;99.90
22153;DHT22;11242;50.536;12.688;2023-10-09T05:08:11;12.70;99.90
22153;DHT22;11242;50.536;12.688;2023-10-09T05:10:52;12.70;99.90
22153;DHT22;11242;50.536;12.688;2023-10-09T05:13:31;12.80;99.90
22153;DHT22;11242;50.536;12.688;2023-10-09T05:16:16;12.80;99.90
22153;DHT22;11242;50.536;12.688;2023-10-09T05:18:51;12.80;99.90
22153;DHT22;11242;50.536;12.688;2023-10-09T05:21:39;12.80;99.90
22153;DHT22;11242;50.536;12.688;2023-10-09T05:24:09;12.70;99.90
22153;DHT22;11242;50.536;12.688;2023-10-09T05:26:47;12.70;99.90
22153;DHT22;11242;50.536;12.688;2023-10-09T05:31:52;12.70;99.90
22153;DHT22;11242;50.536;12.688;2023-10-09T05:34:36;12.70;99.90
22153;DHT22;11242;50.536;12.688;2023-10-09T05:37:22;12.70;99.90
22153;DHT22;11242;50.536;12.688;2023-10-09T05:39:54;12.70;99.90
22153;DHT22;11242;50.536;12.688;2023-10-09T05:42:34;12.80;99.90
22153;DHT22;11242;50.536;12.688;2023-10-09T05:45:04;12.80;99.90
22153;DHT22;11242;50.536;12.688;2023-10-09T05:48:07;12.80;99.90
22153;DHT22;11242;50.536;12.688;2023-10-09T05:50:39;12.90;99.90
22153;DHT22;11242;50.536;12.688;2023-10-09T05:53:23;12.90;99.90
22153;DHT22;11242;50.536;12.688;2023-10-09T05:56:08;12.90;99.90
22153;DHT22;11242;50.536;12.688;2023-10-09T05:58:52;12.90;99.90
22153;DHT22;11242;50.536;12.688;2023-10-09T06:01:36;12.90;99.90
22153;DHT22;11242;50.536;12.688;2023-10-09T06:04:20;12.90;99.90
22153;DHT22;11242;50.536;12.688;2023-10-09T06:06:46;12.90;99.90
22153;DHT22;11242;50.536;12.688;2023-10-09T06:09:21;12.90;99.90
22153;DHT22;11242;50.536;12.688;2023-10-09T06:11:48;13.00;99.90
22153;DHT22;11242;50.536;12.688;2023-10-09T06:14:15;12.90;99.90
22153;DHT22;11242;50.536;12.688;2023-10-09T06:16:53;13.00;99.90
22153;DHT22;11242;50.536;12.688;2023-10-09T06:19:22;13.00;99.90
22153;DHT22;11242;50.536;12.688;2023-10-09T06:21:48;12.90;99.90
22153;DHT22;11242;50.536;12.688;2023-10-09T06:24:32;13.00;99.90
22153;DHT22;11242;50.536;12.688;2023-10-09T06:27:08;13.00;99.90
22153;DHT22;11242;50.536;12.688;2023-10-09T06:29:37;13.00;99.90
22153;DHT22;11242;50.536;12.688;2023-10-09T06:32:16;13.00;99.90
22153;DHT22;11242;50.536;12.688;2023-10-09T06:34:57;13.00;99.90
22153;DHT22;11242;50.536;12.688;2023-10-09T06:37:49;13.00;99.90
22153;DHT22;11242;50.536;12.688;2023-10-09T06:40:35;13.00;99.90
22153;DHT22;11242;50.536;12.688;2023-10-09T06:43:19;13.00;99.90
22153;DHT22;11242;50.536;12.688;2023-10-09T06:45:55;13.10;99.90
22153;DHT22;11242;50.536;12.688;2023-10-09T06:48:26;13.10;99.90
22153;DHT22;11242;50.536;12.688;2023-10-09T06:51:10;13.10;99.90
22153;DHT22;11242;50.536;12.688;2023-10-09T06:53:54;13.10;99.90
22153;DHT22;11242;50.536;12.688;2023-10-09T06:56:25;13.10;99.90
22153;DHT22;11242;50.536;12.688;2023-10-09T06:59:01;13.10;99.90
22153;DHT22;11242;50.536;12.688;2023-10-09T07:01:39;13.10;99.90
22153;DHT22;11242;50.536;12.688;2023-10-09T07:04:11;13.20;99.90
22153;DHT22;11242;50.536;12.688;2023-10-09T07:06:56;13.20;99.90
22153;DHT22;11242;50.536;12.688;2023-10-09T07:09:22;13.20;99.90
22153;DHT22;11242;50.536;12.688;2023-10-09T07:11:52;13.20;99.90
22153;DHT22;11242;50.536;12.688;2023-10-09T07:14:22;13.20;99.90
22153;DHT22;11242;50.536;12.688;2023-10-09T07:17:05;13.20;99.90
22153;DHT22;11242;50.536;12.688;2023-10-09T07:20:09;13.20;99.90
22153;DHT22;11242;50.536;12.688;2023-10-09T07:22:39;13.30;99.90
22153;DHT22;11242;50.536;12.688;2023-10-09T07:25:18;13.30;99.90
22153;DHT22;11242;50.536;12.688;2023-10-09T07:28:02;13.40;99.90
22153;DHT22;11242;50.536;12.688;2023-10-09T07:30:29;13.40;99.90
22153;DHT22;11242;50.536;12.688;2023-10-09T07:32:55;13.50;99.90
22153;DHT22;11242;50.536;12.688;2023-10-09T07:35:21;13.50;99.90
22153;DHT22;11242;50.536;12.688;2023-10-09T07:38:14;13.60;99.90
22153;DHT22;11242;50.536;12.688;2023-10-09T07:40:43;13.70;99.90
22153;DHT22;11242;50.536;12.688;2023-10-09T07:43:22;13.60;99.90
22153;DHT22;11242;50.536;12.688;2023-10-09T07:45:53;13.60;99.90
22153;DHT22;11242;50.536;12.688;2023-10-09T07:48:21;13.50;99.90
22153;DHT22;11242;50.536;12.688;2023-10-09T07:50:51;13.60;99.90
22153;DHT22;11242;50.536;12.688;2023-10-09T07:53:23;13.60;99.90
22153;DHT22;11242;50.536;12.688;2023-10-09T07:55:55;13.70;99.90
22153;DHT22;11242;50.536;12.688;2023-10-09T07:58:27;13.70;99.90
22153;DHT22;11242;50.536;12.688;2023-10-09T08:00:55;13.90;99.90
22153;DHT22;11242;50.536;12.688;2023-10-09T08:03:34;14.10;99.90
22153;DHT22;11242;50.536;12.688;2023-10-09T08:06:01;14.10;99.90
22153;DHT22;11242;50.536;12.688;2023-10-09T08:08:53;14.10;99.90
22153;DHT22;11242;50.536;12.688;2023-10-09T08:11:37;14.00;99.90
22153;DHT22;11242;50.536;12.688;2023-10-09T08:14:09;14.00;99.90
22153;DHT22;11242;50.536;12.688;2023-10-09T08:16:53;14.00;99.90
22153;DHT22;11242;50.536;12.688;2023-10-09T08:19:37;13.90;99.90
22153;DHT22;11242;50.536;12.688;2023-10-09T08:22:18;13.90;99.90
22153;DHT22;11242;50.536;12.688;2023-10-09T08:24:50;13.90;99.90
22153;DHT22;11242;50.536;12.688;2023-10-09T08:27:31;13.90;99.90
22153;DHT22;11242;50.536;12.688;2023-10-09T08:30:07;14.00;99.90
22153;DHT22;11242;50.536;12.688;2023-10-09T08:32:45;14.00;99.90
22153;DHT22;11242;50.536;12.688;2023-10-09T08:35:36;14.10;99.90
22153;DHT22;11242;50.536;12.688;2023-10-09T08:38:15;14.20;99.90
22153;DHT22;11242;50.536;12.688;2023-10-09T08:40:43;14.20;99.90
22153;DHT22;11242;50.536;12.688;2023-10-09T08:43:20;14.20;99.90
22153;DHT22;11242;50.536;12.688;2023-10-09T08:45:51;14.10;99.90
22153;DHT22;11242;50.536;12.688;2023-10-09T08:48:19;14.10;99.90
22153;DHT22;11242;50.536;12.688;2023-10-09T08:50:48;14.10;99.90
22153;DHT22;11242;50.536;12.688;2023-10-09T08:53:15;14.30;99.90
22153;DHT22;11242;50.536;12.688;2023-10-09T08:55:43;14.30;99.90
22153;DHT22;11242;50.536;12.688;2023-10-09T08:58:09;14.40;99.90
22153;DHT22;11242;50.536;12.688;2023-10-09T09:00:44;14.50;99.90
22153;DHT22;11242;50.536;12.688;2023-10-09T09:03:18;14.60;99.90
22153;DHT22;11242;50.536;12.688;2023-10-09T09:05:48;14.50;99.90
22153;DHT22;11242;50.536;12.688;2023-10-09T09:08:35;14.50;99.90
22153;DHT22;11242;50.536;12.688;2023-10-09T09:11:09;14.20;99.90
22153;DHT22;11242;50.536;12.688;2023-10-09T09:13:41;14.20;99.90
22153;DHT22;11242;50.536;12.688;2023-10-09T09:16:15;14.00;99.90
22153;DHT22;11242;50.536;12.688;2023-10-09T09:18:52;13.80;99.90
22153;DHT22;11242;50.536;12.688;2023-10-09T09:21:21;13.70;99.90
22153;DHT22;11242;50.536;12.688;2023-10-09T09:23:58;13.80;99.90
22153;DHT22;11242;50.536;12.688;2023-10-09T09:26:36;13.90;99.90
22153;DHT22;11242;50.536;12.688;2023-10-09T09:29:15;13.90;99.90
22153;DHT22;11242;50.536;12.688;2023-10-09T09:34:19;13.90;99.90
22153;DHT22;11242;50.536;12.688;2023-10-09T09:36:57;13.90;99.90
22153;DHT22;11242;50.536;12.688;2023-10-09T09:39:24;13.80;99.90
22153;DHT22;11242;50.536;12.688;2023-10-09T09:41:58;13.70;99.90
22153;DHT22;11242;50.536;12.688;2023-10-09T09:44:33;13.70;99.90
22153;DHT22;11242;50.536;12.688;2023-10-09T09:47:09;13.70;99.90
22153;DHT22;11242;50.536;12.688;2023-10-09T09:49:41;13.80;99.90
22153;DHT22;11242;50.536;12.688;2023-10-09T09:52:07;13.90;99.90
22153;DHT22;11242;50.536;12.688;2023-10-09T09:54:36;13.90;99.90
22153;DHT22;11242;50.536;12.688;2023-10-09T09:57:03;13.90;99.90
22153;DHT22;11242;50.536;12.688;2023-10-09T09:59:41;13.80;99.90
22153;DHT22;11242;50.536;12.688;2023-10-09T10:02:18;13.70;99.90
22153;DHT22;11242;50.536;12.688;2023-10-09T10:04:46;13.60;99.90
22153;DHT22;11242;50.536;12.688;2023-10-09T10:07:15;13.50;99.90
22153;DHT22;11242;50.536;12.688;2023-10-09T10:09:43;13.40;99.90
22153;DHT22;11242;50.536;12.688;2023-10-09T10:12:11;13.40;99.90
22153;DHT22;11242;50.536;12.688;2023-10-09T10:17:25;13.50;99.90
22153;DHT22;11242;50.536;12.688;2023-10-09T10:20:06;13.50;99.90
22153;DHT22;11242;50.536;12.688;2023-10-09T10:22:44;13.60;99.90
22153;DHT22;11242;50.536;12.688;2023-10-09T10:30:54;13.60;99.90
22153;DHT22;11242;50.536;12.688;2023-10-09T10:33:20;13.70;99.90
22153;DHT22;11242;50.536;12.688;2023-10-09T10:35:48;13.70;99.90
22153;DHT22;11242;50.536;12.688;2023-10-09T10:38:29;13.70;99.90
22153;DHT22;11242;50.536;12.688;2023-10-09T10:41:18;13.70;99.90
22153;DHT22;11242;50.536;12.688;2023-10-09T10:43:48;13.60;99.90
22153;DHT22;11242;50.536;12.688;2023-10-09T10:46:17;13.70;99.90
22153;DHT22;11242;50.536;12.688;2023-10-09T10:48:49;13.70;99.90
22153;DHT22;11242;50.536;12.688;2023-10-09T10:51:23;13.80;99.90
22153;DHT22;11242;50.536;12.688;2023-10-09T10:53:52;13.80;99.90
22153;DHT22;11242;50.536;12.688;2023-10-09T10:56:24;13.90;99.90
22153;DHT22;11242;50.536;12.688;2023-10-09T10:59:01;13.90;99.90
22153;DHT22;11242;50.536;12.688;2023-10-09T11:01:33;13.90;99.90
22153;DHT22;11242;50.536;12.688;2023-10-09T11:04:20;13.90;99.90
22153;DHT22;11242;50.536;12.688;2023-10-09T11:06:58;13.90;99.90
22153;DHT22;11242;50.536;12.688;2023-10-09T11:09:57;13.90;99.90
22153;DHT22;11242;50.536;12.688;2023-10-09T11:12:29;14.00;99.90
22153;DHT22;11242;50.536;12.688;2023-10-09T11:15:09;14.00;99.90
22153;DHT22;11242;50.536;12.688;2023-10-09T11:18:05;14.00;99.90
22153;DHT22;11242;50.536;12.688;2023-10-09T11:20:52;13.90;99.90
22153;DHT22;11242;50.536;12.688;2023-10-09T11:23:42;13.80;99.90
22153;DHT22;11242;50.536;12.688;2023-10-09T11:26:17;13.70;99.90
22153;DHT22;11242;50.536;12.688;2023-10-09T11:29:15;13.80;99.90
22153;DHT22;11242;50.536;12.688;2023-10-09T11:32:03;13.90;99.90
22153;DHT22;11242;50.536;12.688;2023-10-09T11:34:35;13.90;99.90
22153;DHT22;11242;50.536;12.688;2023-10-09T11:37:13;13.90;99.90
22153;DHT22;11242;50.536;12.688;2023-10-09T11:39:41;14.00;99.90
22153;DHT22;11242;50.536;12.688;2023-10-09T11:42:20;14.10;99.90
22153;DHT22;11242;50.536;12.688;2023-10-09T11:45:19;14.10;99.90
22153;DHT22;11242;50.536;12.688;2023-10-09T11:47:49;14.10;99.90
22153;DHT22;11242;50.536;12.688;2023-10-09T11:50:43;14.20;99.90
22153;DHT22;11242;50.536;12.688;2023-10-09T11:53:17;14.20;99.90
22153;DHT22;11242;50.536;12.688;2023-10-09T11:55:59;14.10;99.90
22153;DHT22;11242;50.536;12.688;2023-10-09T11:58:25;14.00;99.90
22153;DHT22;11242;50.536;12.688;2023-10-09T12:00:51;14.00;99.90
22153;DHT22;11242;50.536;12.688;2023-10-09T12:03:28;14.00;99.90
22153;DHT22;11242;50.536;12.688;2023-10-09T12:05:59;13.90;99.90
22153;DHT22;11242;50.536;12.688;2023-10-09T12:08:38;13.90;99.90
22153;DHT22;11242;50.536;12.688;2023-10-09T12:11:05;13.90;99.90
22153;DHT22;11242;50.536;12.688;2023-10-09T12:13:35;13.90;99.90
22153;DHT22;11242;50.536;12.688;2023-10-09T12:16:00;14.00;99.90
22153;DHT22;11242;50.536;12.688;2023-10-09T12:18:26;14.00;99.90
22153;DHT22;11242;50.536;12.688;2023-10-09T12:20:53;14.00;99.90
22153;DHT22;11242;50.536;12.688;2023-10-09T12:23:28;13.90;99.90
22153;DHT22;11242;50.536;12.688;2023-10-09T12:25:53;14.00;99.90
22153;DHT22;11242;50.536;12.688;2023-10-09T12:28:22;14.00;99.90
22153;DHT22;11242;50.536;12.688;2023-10-09T12:30:48;14.00;99.90
22153;DHT22;11242;50.536;12.688;2023-10-09T12:33:18;13.90;99.90
22153;DHT22;11242;50.536;12.688;2023-10-09T12:35:53;13.90;99.90
22153;DHT22;11242;50.536;12.688;2023-10-09T12:38:24;13.80;99.90
22153;DHT22;11242;50.536;12.688;2023-10-09T12:41:03;13.80;99.90
22153;DHT22;11242;50.536;12.688;2023-10-09T12:43:34;13.80;99.90
22153;DHT22;11242;50.536;12.688;2023-10-09T12:46:07;13.80;99.90
22153;DHT22;11242;50.536;12.688;2023-10-09T12:48:33;13.80;99.90
22153;DHT22;11242;50.536;12.688;2023-10-09T12:50:59;13.80;99.90
22153;DHT22;11242;50.536;12.688;2023-10-09T12:53:34;13.80;99.90
22153;DHT22;11242;50.536;12.688;2023-10-09T12:55:59;13.80;99.90
22153;DHT22;11242;50.536;12.688;2023-10-09T12:58:25;13.70;99.90
22153;DHT22;11242;50.536;12.688;2023-10-09T13:00:52;13.80;99.90
22153;DHT22;11242;50.536;12.688;2023-10-09T13:03:18;13.90;99.90
22153;DHT22;11242;50.536;12.688;2023-10-09T13:05:54;13.90;99.90
22153;DHT22;11242;50.536;12.688;2023-10-09T13:08:26;13.90;99.90
22153;DHT22;11242;50.536;12.688;2023-10-09T13:11:08;13.90;99.90
22153;DHT22;11242;50.536;12.688;2023-10-09T13:13:41;13.80;99.90
22153;DHT22;11242;50.536;12.688;2023-10-09T13:18:39;13.90;99.90
22153;DHT22;11242;50.536;12.688;2023-10-09T13:21:05;14.00;99.90
22153;DHT22;11242;50.536;12.688;2023-10-09T13:23:31;14.00;99.90
22153;DHT22;11242;50.536;12.688;2023-10-09T13:26:21;14.00;99.90
22153;DHT22;11242;50.536;12.688;2023-10-09T13:28:54;13.90;99.90
22153;DHT22;11242;50.536;12.688;2023-10-09T13:31:21;13.90;99.90
22153;DHT22;11242;50.536;12.688;2023-10-09T13:33:48;13.90;99.90
22153;DHT22;11242;50.536;12.688;2023-10-09T13:36:14;13.90;99.90
22153;DHT22;11242;50.536;12.688;2023-10-09T13:38:54;13.90;99.90
22153;DHT22;11242;50.536;12.688;2023-10-09T13:41:20;13.90;99.90
22153;DHT22;11242;50.536;12.688;2023-10-09T13:43:46;14.00;99.90
22153;DHT22;11242;50.536;12.688;2023-10-09T13:46:12;14.10;99.90
22153;DHT22;11242;50.536;12.688;2023-10-09T13:48:40;14.10;99.90
22153;DHT22;11242;50.536;12.688;2023-10-09T13:51:10;14.10;99.90
22153;DHT22;11242;50.536;12.688;2023-10-09T13:53:40;14.10;99.90
22153;DHT22;11242;50.536;12.688;2023-10-09T13:56:20;14.00;99.90
22153;DHT22;11242;50.536;12.688;2023-10-09T13:58:51;13.90;99.90
22153;DHT22;11242;50.536;12.688;2023-10-09T14:01:19;13.90;99.90
22153;DHT22;11242;50.536;12.688;2023-10-09T14:03:55;13.90;99.90
22153;DHT22;11242;50.536;12.688;2023-10-09T14:06:21;13.90;99.90
22153;DHT22;11242;50.536;12.688;2023-10-09T14:09:05;13.80;99.90
22153;DHT22;11242;50.536;12.688;2023-10-09T14:11:34;13.90;99.90
22153;DHT22;11242;50.536;12.688;2023-10-09T14:14:10;13.80;99.90
22153;DHT22;11242;50.536;12.688;2023-10-09T14:16:37;13.80;99.90
22153;DHT22;11242;50.536;12.688;2023-10-09T14:19:03;13.80;99.90
22153;DHT22;11242;50.536;12.688;2023-10-09T14:21:33;13.80;99.90
22153;DHT22;11242;50.536;12.688;2023-10-09T14:24:03;13.70;99.90
22153;DHT22;11242;50.536;12.688;2023-10-09T14:26:29;13.70;99.90
22153;DHT22;11242;50.536;12.688;2023-10-09T14:28:56;13.60;99.90
22153;DHT22;11242;50.536;12.688;2023-10-09T14:31:25;13.70;99.90
22153;DHT22;11242;50.536;12.688;2023-10-09T14:33:57;13.60;99.90
22153;DHT22;11242;50.536;12.688;2023-10-09T14:36:23;13.60;99.90
22153;DHT22;11242;50.536;12.688;2023-10-09T14:38:50;13.60;99.90
22153;DHT22;11242;50.536;12.688;2023-10-09T14:41:20;13.50;99.90
22153;DHT22;11242;50.536;12.688;2023-10-09T14:43:49;13.50;99.90
22153;DHT22;11242;50.536;12.688;2023-10-09T14:46:15;13.50;99.90
22153;DHT22;11242;50.536;12.688;2023-10-09T14:48:40;13.50;99.90
22153;DHT22;11242;50.536;12.688;2023-10-09T14:51:11;13.50;99.90
22153;DHT22;11242;50.536;12.688;2023-10-09T14:53:39;13.50;99.90
22153;DHT22;11242;50.536;12.688;2023-10-09T14:56:05;13.50;99.90
22153;DHT22;11242;50.536;12.688;2023-10-09T14:58:35;13.50;99.90
22153;DHT22;11242;50.536;12.688;2023-10-09T15:01:10;13.40;99.90
22153;DHT22;11242;50.536;12.688;2023-10-09T15:03:38;13.40;99.90
22153;DHT22;11242;50.536;12.688;2023-10-09T15:06:04;13.40;99.90
22153;DHT22;11242;50.536;12.688;2023-10-09T15:08:35;13.40;99.90
22153;DHT22;11242;50.536;12.688;2023-10-09T15:11:00;13.40;99.90
22153;DHT22;11242;50.536;12.688;2023-10-09T15:13:26;13.40;99.90
22153;DHT22;11242;50.536;12.688;2023-10-09T15:15:54;13.40;99.90
22153;DHT22;11242;50.536;12.688;2023-10-09T15:18:21;13.30;99.90
22153;DHT22;11242;50.536;12.688;2023-10-09T15:20:47;13.40;99.90
22153;DHT22;11242;50.536;12.688;2023-10-09T15:23:13;13.40;99.90
22153;DHT22;11242;50.536;12.688;2023-10-09T15:25:39;13.30;99.90
22153;DHT22;11242;50.536;12.688;2023-10-09T15:28:05;13.30;99.90
22153;DHT22;11242;50.536;12.688;2023-10-09T15:30:33;13.40;99.90
22153;DHT22;11242;50.536;12.688;2023-10-09T15:32:59;13.40;99.90
22153;DHT22;11242;50.536;12.688;2023-10-09T15:35:26;13.40;99.90
22153;DHT22;11242;50.536;12.688;2023-10-09T15:37:54;13.40;99.90
22153;DHT22;11242;50.536;12.688;2023-10-09T15:40:19;13.50;99.90
22153;DHT22;11242;50.536;12.688;2023-10-09T15:42:49;13.40;99.90
22153;DHT22;11242;50.536;12.688;2023-10-09T15:45:16;13.40;99.90
22153;DHT22;11242;50.536;12.688;2023-10-09T15:47:42;13.50;99.90
22153;DHT22;11242;50.536;12.688;2023-10-09T15:50:08;13.50;99.90
22153;DHT22;11242;50.536;12.688;2023-10-09T15:52:34;13.50;99.90
22153;DHT22;11242;50.536;12.688;2023-10-09T15:55:00;13.50;99.90
22153;DHT22;11242;50.536;12.688;2023-10-09T15:57:26;13.50;99.90
22153;DHT22;11242;50.536;12.688;2023-10-09T15:59:52;13.40;99.90
22153;DHT22;11242;50.536;12.688;2023-10-09T16:02:17;13.40;99.90
22153;DHT22;11242;50.536;12.688;2023-10-09T16:04:44;13.40;99.90
22153;DHT22;11242;50.536;12.688;2023-10-09T16:07:10;13.40;99.90
22153;DHT22;11242;50.536;12.688;2023-10-09T16:09:36;13.30;99.90
22153;DHT22;11242;50.536;12.688;2023-10-09T16:12:08;13.30;99.90